createdAt,value
2023-05-14T00:01:37.601Z,9.05
2023-05-14T00:04:10.132Z,9.06
2023-05-14T00:06:44.573Z,9.04
2023-05-14T00:09:16.907Z,9.02
2023-05-14T00:11:49.938Z,8.96
2023-05-14T00:14:22.541Z,8.96
2023-05-14T00:16:54.795Z,9.01
2023-05-14T00:19:27.109Z,8.96
2023-05-14T00:21:59.338Z,8.91
2023-05-14T00:24:31.590Z,8.88
2023-05-14T00:27:04.648Z,8.85
2023-05-14T00:29:37.560Z,8.84
2023-05-14T00:32:10.977Z,8.78
2023-05-14T00:34:43.259Z,8.78
2023-05-14T00:37:15.577Z,8.72
2023-05-14T00:39:48.252Z,8.68
2023-05-14T00:42:21.187Z,8.67
2023-05-14T00:44:53.739Z,8.65
2023-05-14T00:47:26.585Z,8.61
2023-05-14T00:49:59.104Z,8.58
2023-05-14T00:52:34.047Z,8.56
2023-05-14T00:55:09.772Z,8.56
2023-05-14T00:57:43.094Z,8.53
2023-05-14T01:00:17.398Z,8.50
2023-05-14T01:02:48.587Z,8.44
2023-05-14T01:05:21.638Z,8.41
2023-05-14T01:08:04.574Z,8.39
2023-05-14T01:10:47.397Z,8.37
2023-05-14T01:13:28.311Z,8.32
2023-05-14T01:16:05.261Z,8.32
2023-05-14T01:18:40.724Z,8.29
2023-05-14T01:21:35.156Z,8.28
2023-05-14T01:24:09.017Z,8.26
2023-05-14T01:26:46.088Z,8.23
2023-05-14T01:29:23.288Z,8.21
2023-05-14T01:31:58.799Z,8.15
2023-05-14T01:34:34.211Z,8.12
2023-05-14T01:37:07.812Z,8.06
2023-05-14T01:39:42.489Z,8.05
2023-05-14T01:42:15.096Z,8.04
2023-05-14T01:44:48.510Z,8.06
2023-05-14T01:47:21.209Z,8.08
2023-05-14T01:49:54.349Z,8.05
2023-05-14T01:52:27.079Z,8.04
2023-05-14T01:55:00.313Z,8.05
2023-05-14T01:57:33.086Z,8.00
2023-05-14T02:00:06.832Z,7.98
2023-05-14T02:02:46.200Z,7.97
2023-05-14T02:05:21.501Z,7.98
2023-05-14T02:07:54.103Z,7.95
2023-05-14T02:10:27.297Z,7.94
2023-05-14T02:12:59.643Z,7.97
2023-05-14T02:15:32.010Z,7.94
2023-05-14T02:18:04.223Z,7.93
2023-05-14T02:20:36.476Z,7.91
2023-05-14T02:23:09.563Z,7.88
2023-05-14T02:25:42.301Z,7.85
2023-05-14T02:28:14.501Z,7.80
2023-05-14T02:30:46.925Z,7.76
2023-05-14T02:33:19.726Z,7.74
2023-05-14T02:35:52.526Z,7.73
2023-05-14T02:38:25.501Z,7.73
2023-05-14T02:40:58.986Z,7.77
2023-05-14T02:43:31.218Z,7.74
2023-05-14T02:46:03.957Z,7.76
2023-05-14T02:48:36.360Z,7.74
2023-05-14T02:51:10.128Z,7.76
2023-05-14T02:53:43.579Z,7.74
2023-05-14T02:56:15.946Z,7.78
2023-05-14T02:58:48.391Z,7.78
2023-05-14T03:01:21.885Z,7.81
2023-05-14T03:04:00.468Z,7.83
2023-05-14T03:06:32.731Z,7.80
2023-05-14T03:09:05.001Z,7.77
2023-05-14T03:11:37.873Z,7.76
2023-05-14T03:14:10.404Z,7.74
2023-05-14T03:16:44.379Z,7.71
2023-05-14T03:19:17.667Z,7.71
2023-05-14T03:21:50.484Z,7.71
2023-05-14T03:24:22.845Z,7.70
2023-05-14T03:26:56.346Z,7.70
2023-05-14T03:29:29.274Z,7.70
2023-05-14T03:32:01.473Z,7.70
2023-05-14T03:34:33.857Z,7.71
2023-05-14T03:37:06.389Z,7.74
2023-05-14T03:39:39.564Z,7.77
2023-05-14T03:42:12.054Z,7.84
2023-05-14T03:44:44.383Z,7.87
2023-05-14T03:47:17.232Z,7.94
2023-05-14T03:49:52.516Z,7.97
2023-05-14T03:52:24.737Z,8.05
2023-05-14T03:54:57.754Z,8.12
2023-05-14T03:57:30.075Z,8.18
2023-05-14T04:00:02.327Z,8.23
2023-05-14T04:02:34.871Z,8.35
2023-05-14T04:05:08.002Z,8.50
2023-05-14T04:07:40.213Z,9.22
2023-05-14T04:10:14.286Z,10.43
2023-05-14T04:12:46.936Z,11.90
2023-05-14T04:15:19.661Z,13.27
2023-05-14T04:17:54.756Z,14.07
2023-05-14T04:20:27.706Z,14.41
2023-05-14T04:23:00.671Z,15.18
2023-05-14T04:25:32.997Z,16.27
2023-05-14T04:28:05.554Z,17.23
2023-05-14T04:30:38.687Z,18.08
2023-05-14T04:33:11.501Z,18.36
2023-05-14T04:35:44.763Z,18.17
2023-05-14T04:38:17.233Z,18.11
2023-05-14T04:40:49.644Z,18.84
2023-05-14T04:43:24.658Z,20.07
2023-05-14T04:45:58.336Z,21.17
2023-05-14T04:48:30.939Z,22.28
2023-05-14T04:51:05.036Z,23.34
2023-05-14T04:53:39.986Z,24.38
2023-05-14T04:56:13.228Z,25.38
2023-05-14T04:58:45.532Z,26.41
2023-05-14T05:01:17.970Z,27.15
2023-05-14T05:03:50.420Z,27.91
2023-05-14T05:06:25.077Z,28.52
2023-05-14T05:09:01.975Z,29.27
2023-05-14T05:11:35.120Z,29.96
2023-05-14T05:14:07.558Z,30.39
2023-05-14T05:16:41.068Z,30.85
2023-05-14T05:19:13.520Z,31.41
2023-05-14T05:21:45.950Z,31.85
2023-05-14T05:24:18.623Z,32.10
2023-05-14T05:26:52.525Z,31.78
2023-05-14T05:29:27.546Z,31.37
2023-05-14T05:32:00.088Z,30.69
2023-05-14T05:34:32.517Z,29.66
2023-05-14T05:37:06.262Z,28.82
2023-05-14T05:39:39.581Z,28.38
2023-05-14T05:42:12.003Z,28.56
2023-05-14T05:44:44.372Z,29.25
2023-05-14T05:47:17.370Z,30.00
2023-05-14T05:49:49.890Z,30.52
2023-05-14T05:52:22.452Z,30.89
2023-05-14T05:54:55.881Z,30.73
2023-05-14T05:57:29.978Z,30.96
2023-05-14T06:00:10.135Z,31.67
2023-05-14T06:02:45.481Z,32.35
2023-05-14T06:05:18.652Z,32.34
2023-05-14T06:07:51.155Z,32.09
2023-05-14T06:10:26.616Z,31.38
2023-05-14T06:13:00.152Z,30.99
2023-05-14T06:15:32.766Z,30.20
2023-05-14T06:18:05.379Z,29.25
2023-05-14T06:20:38.689Z,28.45
2023-05-14T06:23:12.492Z,27.59
2023-05-14T06:25:44.787Z,26.66
2023-05-14T06:28:17.271Z,25.77
2023-05-14T06:30:56.224Z,24.77
2023-05-14T06:33:31.884Z,24.03
2023-05-14T06:36:08.191Z,23.52
2023-05-14T06:38:41.649Z,22.98
2023-05-14T06:41:14.275Z,22.62
2023-05-14T06:43:46.544Z,22.25
2023-05-14T06:46:19.087Z,21.94
2023-05-14T06:48:51.432Z,21.76
2023-05-14T06:51:23.867Z,21.65
2023-05-14T06:54:04.539Z,21.53
2023-05-14T06:56:37.598Z,21.44
2023-05-14T06:59:12.865Z,21.35
2023-05-14T07:01:45.343Z,21.35
2023-05-14T07:04:22.384Z,21.59
2023-05-14T07:06:54.730Z,21.97
2023-05-14T07:09:27.268Z,22.03
2023-05-14T07:11:59.623Z,21.83
2023-05-14T07:14:32.255Z,21.53
2023-05-14T07:17:04.743Z,21.45
2023-05-14T07:19:37.688Z,21.31
2023-05-14T07:22:10.326Z,21.19
2023-05-14T07:24:45.420Z,21.01
2023-05-14T07:27:18.225Z,21.00
2023-05-14T07:29:50.802Z,20.98
2023-05-14T07:32:25.249Z,21.13
2023-05-14T07:34:57.743Z,21.07
2023-05-14T07:37:30.126Z,21.10
2023-05-14T07:40:08.200Z,21.10
2023-05-14T07:42:41.117Z,21.17
2023-05-14T07:45:14.013Z,21.18
2023-05-14T07:47:46.321Z,21.18
2023-05-14T07:50:19.676Z,21.17
2023-05-14T07:52:51.941Z,21.17
2023-05-14T07:55:24.850Z,21.35
2023-05-14T07:57:57.210Z,21.59
2023-05-14T08:00:30.746Z,21.62
2023-05-14T08:03:03.188Z,21.72
2023-05-14T08:05:35.587Z,21.77
2023-05-14T08:08:08.546Z,21.84
2023-05-14T08:10:42.296Z,21.94
2023-05-14T08:13:13.000Z,21.99
2023-05-14T08:15:45.288Z,22.05
2023-05-14T08:18:18.389Z,22.07
2023-05-14T08:20:51.478Z,22.15
2023-05-14T08:23:23.853Z,22.22
2023-05-14T08:25:56.120Z,22.34
2023-05-14T08:28:28.798Z,22.38
2023-05-14T08:31:01.262Z,22.39
2023-05-14T08:33:33.590Z,22.39
2023-05-14T08:36:08.865Z,22.42
2023-05-14T08:38:44.436Z,22.52
2023-05-14T08:41:22.953Z,22.67
2023-05-14T08:44:10.255Z,22.86
2023-05-14T08:46:45.654Z,23.01
2023-05-14T08:49:34.122Z,23.14
2023-05-14T08:52:08.222Z,23.32
2023-05-14T08:54:41.350Z,23.56
2023-05-14T08:57:14.486Z,23.80
2023-05-14T08:59:47.450Z,24.12
2023-05-14T09:02:22.218Z,24.37
2023-05-14T09:04:59.218Z,24.65
2023-05-14T09:07:31.535Z,24.96
2023-05-14T09:10:04.231Z,25.20
2023-05-14T09:12:37.419Z,25.46
2023-05-14T09:15:11.722Z,25.69
2023-05-14T09:17:44.524Z,25.75
2023-05-14T09:20:18.041Z,25.86
2023-05-14T09:22:48.756Z,26.11
2023-05-14T09:25:21.122Z,26.35
2023-05-14T09:27:55.693Z,26.52
2023-05-14T09:30:30.267Z,26.70
2023-05-14T09:33:04.304Z,26.80
2023-05-14T09:35:39.426Z,26.86
2023-05-14T09:38:12.405Z,27.04
2023-05-14T09:40:44.663Z,27.14
2023-05-14T09:43:16.944Z,27.25
2023-05-14T09:45:49.362Z,27.34
2023-05-14T09:48:22.596Z,27.31
2023-05-14T09:50:54.939Z,27.28
2023-05-14T09:53:27.682Z,27.37
2023-05-14T09:56:00.180Z,27.31
2023-05-14T09:58:32.689Z,27.45
2023-05-14T10:01:06.322Z,27.65
2023-05-14T10:03:40.674Z,27.79
2023-05-14T10:06:15.114Z,27.87
2023-05-14T10:08:49.928Z,27.99
2023-05-14T10:11:26.557Z,28.04
2023-05-14T10:14:10.911Z,28.04
2023-05-14T10:16:48.342Z,27.89
2023-05-14T10:19:22.470Z,27.73
2023-05-14T10:22:01.116Z,27.66
2023-05-14T10:24:34.363Z,27.69
2023-05-14T10:27:05.159Z,27.87
2023-05-14T10:29:39.893Z,27.84
2023-05-14T10:32:13.552Z,27.83
2023-05-14T10:34:46.513Z,27.87
2023-05-14T10:37:21.118Z,27.99
2023-05-14T10:39:55.587Z,28.20
2023-05-14T10:42:30.057Z,28.07
2023-05-14T10:45:06.007Z,27.99
2023-05-14T10:47:40.284Z,27.89
2023-05-14T10:50:15.334Z,27.75
2023-05-14T10:52:48.252Z,27.46
2023-05-14T10:55:20.497Z,27.22
2023-05-14T10:57:53.689Z,27.20
2023-05-14T11:00:27.993Z,27.07
2023-05-14T11:03:01.783Z,26.78
2023-05-14T11:05:39.432Z,26.44
2023-05-14T11:08:13.147Z,26.41
2023-05-14T11:10:47.279Z,26.51
2023-05-14T11:13:20.368Z,26.73
2023-05-14T11:15:53.484Z,26.96
2023-05-14T11:18:31.194Z,27.21
2023-05-14T11:21:03.802Z,27.34
2023-05-14T11:23:36.081Z,27.32
2023-05-14T11:26:09.013Z,27.24
2023-05-14T11:28:42.462Z,27.32
2023-05-14T11:31:15.696Z,27.29
2023-05-14T11:33:47.994Z,27.38
2023-05-14T11:36:20.289Z,27.40
2023-05-14T11:38:52.847Z,27.44
2023-05-14T11:41:28.255Z,27.46
2023-05-14T11:44:01.102Z,27.45
2023-05-14T11:46:33.456Z,27.41
2023-05-14T11:49:09.546Z,27.44
2023-05-14T11:51:41.953Z,27.38
2023-05-14T11:54:16.945Z,27.32
2023-05-14T11:56:54.085Z,27.32
2023-05-14T11:59:27.250Z,27.25
2023-05-14T12:01:59.861Z,27.42
2023-05-14T12:04:32.570Z,27.40
2023-05-14T12:07:11.813Z,27.34
2023-05-14T12:09:49.619Z,27.24
2023-05-14T12:12:23.831Z,27.11
2023-05-14T12:14:56.199Z,27.00
2023-05-14T12:17:28.564Z,26.86
2023-05-14T12:20:01.771Z,26.70
2023-05-14T12:22:32.478Z,26.60
2023-05-14T12:25:05.196Z,26.60
2023-05-14T12:27:40.823Z,26.58
2023-05-14T12:32:53.128Z,26.65
2023-05-14T12:35:25.882Z,26.70
2023-05-14T12:37:58.323Z,26.63
2023-05-14T12:40:30.639Z,26.59
2023-05-14T12:43:04.394Z,26.56
2023-05-14T12:45:36.640Z,26.46
2023-05-14T12:48:09.860Z,26.41
2023-05-14T12:50:42.273Z,26.37
2023-05-14T12:53:16.543Z,26.32
2023-05-14T12:55:49.852Z,26.41
2023-05-14T12:58:22.215Z,26.46
2023-05-14T13:00:54.857Z,26.52
2023-05-14T13:03:27.951Z,26.54
2023-05-14T13:06:00.487Z,26.59
2023-05-14T13:08:32.797Z,26.62
2023-05-14T13:11:05.051Z,26.45
2023-05-14T13:13:39.542Z,26.52
2023-05-14T13:16:17.049Z,26.46
2023-05-14T13:18:49.693Z,26.52
2023-05-14T13:21:22.756Z,26.54
2023-05-14T13:23:55.112Z,26.51
2023-05-14T13:26:28.471Z,26.49
2023-05-14T13:29:01.241Z,26.63
2023-05-14T13:31:34.065Z,26.69
2023-05-14T13:34:08.325Z,26.63
2023-05-14T13:36:40.949Z,26.63
2023-05-14T13:39:14.437Z,26.79
2023-05-14T13:41:47.023Z,26.87
2023-05-14T13:44:19.509Z,26.87
2023-05-14T13:46:51.917Z,26.72
2023-05-14T13:49:24.375Z,26.39
2023-05-14T13:51:56.605Z,26.16
2023-05-14T13:54:28.926Z,26.08
2023-05-14T13:57:01.222Z,26.11
2023-05-14T13:59:33.635Z,26.05
2023-05-14T14:02:07.225Z,25.96
2023-05-14T14:04:40.295Z,25.87
2023-05-14T14:07:12.646Z,25.79
2023-05-14T14:09:45.376Z,25.65
2023-05-14T14:12:17.754Z,25.48
2023-05-14T14:14:51.131Z,25.15
2023-05-14T14:17:25.387Z,24.90
2023-05-14T14:19:57.839Z,24.69
2023-05-14T14:22:30.200Z,24.51
2023-05-14T14:25:02.877Z,24.45
2023-05-14T14:27:39.679Z,24.52
2023-05-14T14:30:16.842Z,24.62
2023-05-14T14:32:50.002Z,24.56
2023-05-14T14:35:23.218Z,24.51
2023-05-14T14:37:55.942Z,24.51
2023-05-14T14:40:28.476Z,24.54
2023-05-14T14:43:02.571Z,24.56
2023-05-14T14:45:35.027Z,24.66
2023-05-14T14:48:25.264Z,24.72
2023-05-14T14:50:58.972Z,24.72
2023-05-14T14:53:41.552Z,24.73
2023-05-14T14:56:14.965Z,24.70
2023-05-14T14:58:47.337Z,24.70
2023-05-14T15:01:19.875Z,24.65
2023-05-14T15:03:52.774Z,24.65
2023-05-14T15:06:25.091Z,24.58
2023-05-14T15:08:57.656Z,24.44
2023-05-14T15:11:30.654Z,24.28
2023-05-14T15:14:08.171Z,24.12
2023-05-14T15:16:44.701Z,23.96
2023-05-14T15:19:17.345Z,23.86
2023-05-14T15:21:50.428Z,23.73
2023-05-14T15:24:24.187Z,23.70
2023-05-14T15:26:56.670Z,23.63
2023-05-14T15:29:29.101Z,23.53
2023-05-14T15:32:06.812Z,23.45
2023-05-14T15:34:44.682Z,23.31
2023-05-14T15:37:17.119Z,23.18
2023-05-14T15:39:49.599Z,23.09
2023-05-14T15:42:22.280Z,23.01
2023-05-14T15:44:54.634Z,22.94
2023-05-14T15:47:27.441Z,22.89
2023-05-14T15:50:00.080Z,22.83
2023-05-14T15:52:33.826Z,22.75
2023-05-14T15:55:05.054Z,22.69
2023-05-14T15:57:40.642Z,22.63
2023-05-14T16:00:15.097Z,22.55
2023-05-14T16:02:47.638Z,22.54
2023-05-14T16:05:20.405Z,22.52
2023-05-14T16:07:53.129Z,22.54
2023-05-14T16:10:26.206Z,22.54
2023-05-14T16:12:58.752Z,22.59
2023-05-14T16:15:31.312Z,22.63
2023-05-14T16:18:04.323Z,22.65
2023-05-14T16:20:36.584Z,22.67
2023-05-14T16:23:09.109Z,22.67
2023-05-14T16:25:44.034Z,22.67
2023-05-14T16:28:16.753Z,22.69
2023-05-14T16:30:49.286Z,22.66
2023-05-14T16:33:21.467Z,22.63
2023-05-14T16:35:54.285Z,22.62
2023-05-14T16:38:27.006Z,22.59
2023-05-14T16:40:59.324Z,22.58
2023-05-14T16:43:31.489Z,22.54
2023-05-14T16:46:03.933Z,22.48
2023-05-14T16:48:36.245Z,22.43
2023-05-14T16:51:10.831Z,22.35
2023-05-14T16:53:43.360Z,22.29
2023-05-14T16:56:16.017Z,22.22
2023-05-14T16:58:48.296Z,22.14
2023-05-14T17:01:20.646Z,22.08
2023-05-14T17:03:54.627Z,22.01
2023-05-14T17:06:27.847Z,21.94
2023-05-14T17:09:00.234Z,21.87
2023-05-14T17:11:33.068Z,21.80
2023-05-14T17:14:04.149Z,21.70
2023-05-14T17:16:42.466Z,21.60
2023-05-14T17:19:13.783Z,21.55
2023-05-14T17:21:46.189Z,21.46
2023-05-14T17:24:18.627Z,21.37
2023-05-14T17:26:50.961Z,21.31
2023-05-14T17:29:23.451Z,21.22
2023-05-14T17:31:56.107Z,21.15
2023-05-14T17:34:28.676Z,21.10
2023-05-14T17:37:01.144Z,21.01
2023-05-14T17:39:33.390Z,20.96
2023-05-14T17:42:06.420Z,20.89
2023-05-14T17:44:41.606Z,20.80
2023-05-14T17:47:14.020Z,20.72
2023-05-14T17:49:46.578Z,20.66
2023-05-14T17:52:19.334Z,20.56
2023-05-14T17:54:51.721Z,20.48
2023-05-14T17:57:24.255Z,20.42
2023-05-14T17:59:56.635Z,20.29
2023-05-14T18:02:29.271Z,20.22
2023-05-14T18:05:03.483Z,20.13
2023-05-14T18:07:36.577Z,20.05
2023-05-14T18:10:11.650Z,19.93
2023-05-14T18:12:46.424Z,19.84
2023-05-14T18:15:20.326Z,19.72
2023-05-14T18:21:17.800Z,19.42
2023-05-14T18:23:50.239Z,19.27
2023-05-14T18:26:23.429Z,19.14
2023-05-14T18:28:55.945Z,19.04
2023-05-14T18:31:28.979Z,18.90
2023-05-14T18:34:02.026Z,18.70
2023-05-14T18:36:34.664Z,18.58
2023-05-14T18:39:06.991Z,18.44
2023-05-14T18:41:45.415Z,18.31
2023-05-14T18:44:17.965Z,18.20
2023-05-14T18:46:50.545Z,18.07
2023-05-14T18:49:22.936Z,17.94
2023-05-14T18:51:55.246Z,17.87
2023-05-14T18:54:27.635Z,17.77
2023-05-14T18:57:00.344Z,17.69
2023-05-14T18:59:32.729Z,17.64
2023-05-14T19:02:05.202Z,17.52
2023-05-14T19:04:50.771Z,17.46
2023-05-14T19:07:24.862Z,17.34
2023-05-14T19:10:10.065Z,17.25
2023-05-14T19:12:44.828Z,17.11
2023-05-14T19:15:17.307Z,17.02
2023-05-14T19:17:49.675Z,16.92
2023-05-14T19:20:22.515Z,16.76
2023-05-14T19:22:55.350Z,16.65
2023-05-14T19:25:28.017Z,16.52
2023-05-14T19:28:01.746Z,16.41
2023-05-14T19:30:34.131Z,16.28
2023-05-14T19:33:06.674Z,16.20
2023-05-14T19:35:39.387Z,16.12
2023-05-14T19:38:11.934Z,16.03
2023-05-14T19:40:45.704Z,15.94
2023-05-14T19:43:17.986Z,15.85
2023-05-14T19:45:50.829Z,15.79
2023-05-14T19:48:23.171Z,15.70
2023-05-14T19:50:55.902Z,15.65
2023-05-14T19:53:30.952Z,15.58
2023-05-14T19:56:03.815Z,15.54
2023-05-14T19:58:36.480Z,15.45
2023-05-14T20:01:09.756Z,15.37
2023-05-14T20:03:42.552Z,15.33
2023-05-14T20:06:15.149Z,15.27
2023-05-14T20:08:47.672Z,15.23
2023-05-14T20:11:20.091Z,15.18
2023-05-14T20:13:52.349Z,15.15
2023-05-14T20:16:27.905Z,15.13
2023-05-14T20:19:01.593Z,15.14
2023-05-14T20:21:34.997Z,15.11
2023-05-14T20:24:07.932Z,15.10
2023-05-14T20:26:42.819Z,15.07
2023-05-14T20:29:15.803Z,15.09
2023-05-14T20:31:48.206Z,15.07
2023-05-14T20:34:20.475Z,15.06
2023-05-14T20:36:53.258Z,15.06
2023-05-14T20:39:27.871Z,15.07
2023-05-14T20:42:02.967Z,15.09
2023-05-14T20:44:35.776Z,15.09
2023-05-14T20:47:09.325Z,15.09
2023-05-14T20:49:42.724Z,15.14
2023-05-14T20:52:15.387Z,15.17
2023-05-14T20:54:47.688Z,15.23
2023-05-14T20:57:20.709Z,15.34
2023-05-14T20:59:53.090Z,15.38
2023-05-14T21:02:25.694Z,15.47
2023-05-14T21:05:04.623Z,15.57
2023-05-14T21:07:38.106Z,15.64
2023-05-14T21:10:12.423Z,15.69
2023-05-14T21:12:45.165Z,15.73
2023-05-14T21:15:17.455Z,15.78
2023-05-14T21:17:49.859Z,15.82
2023-05-14T21:20:22.432Z,15.85
2023-05-14T21:22:54.856Z,15.89
2023-05-14T21:25:27.996Z,15.93
2023-05-14T21:28:00.542Z,15.97
2023-05-14T21:30:34.430Z,16.03
2023-05-14T21:33:07.173Z,16.04
2023-05-14T21:35:39.631Z,16.09
2023-05-14T21:38:12.053Z,16.07
2023-05-14T21:40:44.284Z,16.12
2023-05-14T21:43:16.660Z,16.12
2023-05-14T21:45:49.440Z,16.10
2023-05-14T21:48:23.026Z,16.10
2023-05-14T21:50:56.135Z,16.12
2023-05-14T21:53:28.707Z,16.12
2023-05-14T21:56:03.944Z,16.07
2023-05-14T21:58:36.651Z,16.13
2023-05-14T22:01:11.792Z,16.20
2023-05-14T22:03:45.337Z,16.21
2023-05-14T22:06:20.087Z,16.25
2023-05-14T22:08:52.349Z,16.27
2023-05-14T22:11:24.716Z,16.30
2023-05-14T22:13:56.914Z,16.28
2023-05-14T22:16:29.624Z,16.28
2023-05-14T22:19:06.459Z,16.30
2023-05-14T22:21:41.575Z,16.31
2023-05-14T22:24:14.019Z,16.31
2023-05-14T22:26:46.603Z,16.34
2023-05-14T22:29:18.917Z,16.34
2023-05-14T22:31:51.478Z,16.34
2023-05-14T22:34:23.879Z,16.38
2023-05-14T22:36:56.281Z,16.37
2023-05-14T22:39:28.779Z,16.35
2023-05-14T22:42:01.832Z,16.37
2023-05-14T22:44:36.012Z,16.37
2023-05-14T22:47:09.817Z,16.37
2023-05-14T22:49:43.785Z,16.34
2023-05-14T22:52:14.515Z,16.37
2023-05-14T22:54:47.189Z,16.38
2023-05-14T22:57:19.527Z,16.38
2023-05-14T22:59:52.188Z,16.38
2023-05-14T23:02:24.748Z,16.35
2023-05-14T23:04:57.989Z,16.32
2023-05-14T23:07:30.487Z,16.31
2023-05-14T23:10:02.806Z,16.30
2023-05-14T23:12:35.185Z,16.28
2023-05-14T23:15:09.412Z,16.24
2023-05-14T23:17:42.828Z,16.23
2023-05-14T23:20:15.586Z,16.20
2023-05-14T23:22:48.622Z,16.19
2023-05-14T23:25:21.335Z,16.17
2023-05-14T23:27:53.675Z,16.13
2023-05-14T23:30:26.362Z,16.13
2023-05-14T23:32:58.702Z,16.10
2023-05-14T23:35:31.363Z,16.09
2023-05-14T23:38:05.172Z,16.07
2023-05-14T23:40:37.390Z,16.06
2023-05-14T23:43:10.861Z,16.03
2023-05-14T23:45:45.049Z,16.00
2023-05-14T23:48:17.521Z,15.98
2023-05-14T23:50:49.812Z,15.96
2023-05-14T23:53:22.310Z,15.92
2023-05-14T23:55:55.238Z,15.90
2023-05-14T23:58:27.561Z,15.83
